Time;durP1;ratioP1;P1;durP2;ratioP2;P2;SDS_P1;SDS_P2;PMS_P1;PMS_P2;Temp;Humidity;BMP_temperature;BMP_pressure;BME280_temperature;BME280_humidity;BME280_pressure;Samples;Min_cycle;Max_cycle;Signal;HPM_P1;HPM_P2
2022/03/13 00:01:41;;;;;;;29.87;9.83;;;0.90;90.20;;;;;;5036738;28;20551;-64
2022/03/13 00:04:08;;;;;;;21.00;9.27;;;0.90;90.20;;;;;;5036674;28;20428;-65
2022/03/13 00:06:35;;;;;;;25.23;9.53;;;0.90;90.30;;;;;;5046783;28;20178;-65
2022/03/13 00:09:05;;;;;;;17.37;8.73;;;0.80;90.00;;;;;;5043748;28;20467;-66
2022/03/13 00:11:31;;;;;;;25.50;10.80;;;0.80;90.20;;;;;;5046323;28;20443;-65
2022/03/13 00:13:57;;;;;;;24.43;8.63;;;0.80;90.50;;;;;;5035325;28;20931;-67
2022/03/13 00:16:23;;;;;;;17.13;7.70;;;0.90;90.40;;;;;;5043005;28;20219;-66
2022/03/13 00:18:49;;;;;;;23.23;9.40;;;1.00;90.00;;;;;;5038688;28;20587;-66
2022/03/13 00:21:19;;;;;;;25.67;9.70;;;0.90;90.20;;;;;;5041387;28;20421;-66
2022/03/13 00:23:46;;;;;;;23.27;8.00;;;0.90;90.00;;;;;;5019401;28;20461;-65
2022/03/13 00:26:13;;;;;;;19.17;9.80;;;0.80;90.10;;;;;;5037334;28;20706;-65
2022/03/13 00:28:39;;;;;;;27.13;10.50;;;0.70;90.20;;;;;;5033502;28;20441;-66
2022/03/13 00:31:05;;;;;;;19.67;8.60;;;0.80;90.30;;;;;;5043234;28;20958;-64
2022/03/13 00:33:31;;;;;;;21.23;9.00;;;0.80;90.10;;;;;;5032935;28;20831;-66
2022/03/13 00:35:57;;;;;;;17.30;8.30;;;0.80;89.50;;;;;;5039015;28;20523;-65
2022/03/13 00:38:25;;;;;;;27.80;10.40;;;0.80;89.30;;;;;;5039151;28;20596;-65
2022/03/13 00:40:55;;;;;;;20.80;9.30;;;0.70;89.30;;;;;;5041839;28;20182;-67
2022/03/13 00:43:23;;;;;;;21.33;10.00;;;0.70;90.10;;;;;;5031607;28;20463;-67
2022/03/13 00:45:49;;;;;;;28.40;10.27;;;0.70;89.90;;;;;;5035349;28;20984;-65
2022/03/13 00:48:15;;;;;;;19.23;8.50;;;0.70;90.00;;;;;;5046504;28;20436;-65
2022/03/13 00:50:41;;;;;;;19.67;8.27;;;0.60;90.00;;;;;;5022957;28;20428;-65
2022/03/13 00:53:07;;;;;;;21.00;8.33;;;0.50;89.80;;;;;;5039921;28;20828;-65
2022/03/13 00:55:34;;;;;;;20.00;9.17;;;0.40;89.80;;;;;;5043421;28;20446;-67
2022/03/13 00:58:00;;;;;;;25.07;10.23;;;0.40;90.00;;;;;;5044918;28;20221;-65
2022/03/13 01:00:26;;;;;;;24.23;8.67;;;0.40;90.30;;;;;;5020080;28;20498;-65
2022/03/13 01:02:52;;;;;;;17.63;7.93;;;0.30;90.10;;;;;;5040139;28;21174;-65
2022/03/13 01:05:24;;;;;;;16.00;7.80;;;0.30;90.20;;;;;;5038482;28;20453;-67
2022/03/13 01:07:51;;;;;;;23.23;10.03;;;0.20;90.10;;;;;;5042215;28;20202;-64
2022/03/13 01:10:17;;;;;;;17.87;8.00;;;0.20;90.10;;;;;;5037488;28;20440;-65
2022/03/13 01:12:43;;;;;;;19.17;7.90;;;0.20;90.20;;;;;;5039158;28;20439;-65
2022/03/13 01:15:10;;;;;;;22.30;8.23;;;0.20;90.30;;;;;;5038222;28;20930;-62
2022/03/13 01:17:36;;;;;;;25.50;8.60;;;0.20;90.00;;;;;;5040483;28;20459;-65
2022/03/13 01:20:03;;;;;;;18.37;8.77;;;0.20;90.00;;;;;;5035740;28;20432;-65
2022/03/13 01:22:29;;;;;;;18.87;8.30;;;0.20;89.90;;;;;;5038551;28;20208;-63
2022/03/13 01:24:55;;;;;;;24.10;8.60;;;0.10;90.00;;;;;;5032687;28;20900;-65
2022/03/13 01:27:22;;;;;;;19.20;9.20;;;0.10;90.10;;;;;;5040266;28;20198;-63
2022/03/13 01:29:48;;;;;;;18.77;8.63;;;0.20;90.20;;;;;;5041434;28;20301;-64
2022/03/13 01:32:14;;;;;;;15.00;7.90;;;0.20;90.10;;;;;;5036201;28;20476;-66
2022/03/13 01:34:46;;;;;;;24.97;8.33;;;0.20;90.40;;;;;;5040582;28;20420;-65
2022/03/13 01:37:14;;;;;;;16.30;8.00;;;0.30;90.20;;;;;;5041055;28;20454;-64
2022/03/13 01:39:41;;;;;;;23.90;9.37;;;0.30;90.10;;;;;;5042030;28;20456;-64
2022/03/13 01:42:07;;;;;;;18.50;7.60;;;0.20;90.10;;;;;;5036702;28;20432;-66
2022/03/13 01:44:33;;;;;;;22.27;9.07;;;0.20;90.10;;;;;;5022646;28;20994;-65
2022/03/13 01:47:01;;;;;;;18.23;8.00;;;0.20;89.70;;;;;;5031363;28;20186;-65
2022/03/13 01:49:27;;;;;;;18.90;7.20;;;0.20;89.70;;;;;;5034136;28;20217;-65
2022/03/13 01:51:53;;;;;;;16.27;6.57;;;0.20;89.70;;;;;;5020035;28;21352;-65
2022/03/13 01:54:18;;;;;;;23.50;8.10;;;0.20;89.70;;;;;;5041019;28;20519;-65
2022/03/13 01:56:44;;;;;;;20.33;8.53;;;0.20;89.40;;;;;;5045775;28;20185;-66
2022/03/13 01:59:14;;;;;;;17.53;8.27;;;0.20;89.40;;;;;;5043836;28;20213;-65
2022/03/13 02:01:39;;;;;;;21.80;9.27;;;0.20;89.60;;;;;;5042923;28;21002;-65
2022/03/13 02:04:06;;;;;;;17.53;7.90;;;0.20;89.40;;;;;;5033932;28;20429;-64
2022/03/13 02:06:32;;;;;;;21.93;9.37;;;0.10;89.50;;;;;;5042549;28;20269;-66
2022/03/13 02:08:59;;;;;;;24.63;9.60;;;0.00;89.70;;;;;;5037964;28;20991;-65
2022/03/13 02:11:37;;;;;;;17.83;8.23;;;-0.10;89.90;;;;;;5037121;28;20429;-65
2022/03/13 02:14:05;;;;;;;24.40;8.60;;;-0.10;90.20;;;;;;5036383;28;20976;-65
2022/03/13 02:16:31;;;;;;;16.90;8.27;;;-0.20;90.30;;;;;;5041721;28;20494;-64
2022/03/13 02:18:57;;;;;;;21.73;9.67;;;-0.20;90.70;;;;;;5036283;28;20464;-68
2022/03/13 02:21:26;;;;;;;20.70;8.37;;;-0.10;90.50;;;;;;5039139;28;20332;-65
2022/03/13 02:23:55;;;;;;;27.77;9.77;;;-0.10;90.50;;;;;;5030841;28;20432;-66
2022/03/13 02:26:21;;;;;;;16.97;8.80;;;0.00;90.50;;;;;;5037974;28;20416;-63
2022/03/13 02:28:52;;;;;;;15.53;7.40;;;0.00;90.30;;;;;;5028654;28;20504;-67
2022/03/13 02:31:32;;;;;;;18.33;8.67;;;0.10;90.40;;;;;;5034422;28;20190;-65
2022/03/13 02:33:58;;;;;;;22.03;9.13;;;0.10;90.20;;;;;;5024448;28;20430;-65
2022/03/13 02:36:27;;;;;;;17.77;8.73;;;0.00;90.10;;;;;;5041795;28;20428;-67
2022/03/13 02:38:52;;;;;;;19.37;8.83;;;0.00;90.50;;;;;;5043675;28;20839;-66
2022/03/13 02:41:19;;;;;;;20.37;7.90;;;-0.10;90.30;;;;;;5031932;28;20439;-65
2022/03/13 02:43:45;;;;;;;17.70;8.17;;;-0.20;90.40;;;;;;5040363;28;20181;-66
2022/03/13 02:46:21;;;;;;;19.20;9.40;;;-0.30;90.50;;;;;;5042237;28;20425;-66
2022/03/13 02:48:49;;;;;;;22.50;9.70;;;-0.30;90.80;;;;;;5042497;28;20455;-66
2022/03/13 02:51:15;;;;;;;22.70;8.83;;;-0.30;90.90;;;;;;5019607;28;20456;-64
2022/03/13 02:53:41;;;;;;;19.90;9.67;;;-0.30;91.00;;;;;;5032013;28;20432;-66
2022/03/13 02:56:07;;;;;;;20.70;9.20;;;-0.30;91.10;;;;;;5040877;28;20455;-65
2022/03/13 02:58:33;;;;;;;23.50;9.63;;;-0.20;91.30;;;;;;5017970;28;20865;-65
2022/03/13 03:00:59;;;;;;;17.90;9.47;;;-0.20;91.30;;;;;;5020287;28;20452;-65
2022/03/13 03:03:26;;;;;;;33.80;10.63;;;-0.10;91.20;;;;;;5030290;28;20488;-66
2022/03/13 03:05:52;;;;;;;21.03;9.30;;;0.00;91.30;;;;;;5036153;28;20840;-66
2022/03/13 03:08:18;;;;;;;25.07;9.03;;;0.10;91.40;;;;;;5033524;28;20445;-66
2022/03/13 03:10:44;;;;;;;24.90;9.43;;;0.10;91.50;;;;;;5030795;28;20440;-63
2022/03/13 03:13:11;;;;;;;18.83;9.10;;;0.10;91.20;;;;;;5031090;28;20429;-65
2022/03/13 03:15:38;;;;;;;20.10;8.97;;;0.10;91.30;;;;;;5037564;28;20435;-66
2022/03/13 03:18:06;;;;;;;19.53;9.50;;;0.20;91.60;;;;;;5038900;28;20995;-63
2022/03/13 03:20:32;;;;;;;21.63;10.27;;;0.20;91.80;;;;;;5035600;28;20433;-66
2022/03/13 03:22:57;;;;;;;33.43;11.17;;;0.20;92.00;;;;;;5035060;28;20419;-64
2022/03/13 03:25:25;;;;;;;21.03;9.37;;;0.20;92.00;;;;;;5033645;28;20508;-66
2022/03/13 03:27:52;;;;;;;26.00;9.90;;;0.20;92.10;;;;;;5034444;28;20201;-65
2022/03/13 03:30:22;;;;;;;24.60;9.83;;;0.20;92.20;;;;;;5033873;28;20441;-65
2022/03/13 03:32:49;;;;;;;18.53;7.90;;;0.20;92.30;;;;;;5037993;28;20953;-63
2022/03/13 03:35:20;;;;;;;14.57;7.80;;;0.20;92.40;;;;;;5033401;28;20838;-66
2022/03/13 03:37:46;;;;;;;20.17;9.20;;;0.20;92.30;;;;;;5026080;28;20464;-66
2022/03/13 03:40:12;;;;;;;22.50;10.30;;;0.20;92.20;;;;;;5027125;28;20477;-66
2022/03/13 03:42:39;;;;;;;20.00;8.60;;;0.20;92.20;;;;;;5036237;28;20587;-65
2022/03/13 03:45:06;;;;;;;28.23;10.33;;;0.20;92.10;;;;;;5029927;28;20182;-65
2022/03/13 03:47:31;;;;;;;22.07;10.20;;;0.10;92.10;;;;;;5038026;28;20420;-64
2022/03/13 03:49:57;;;;;;;23.40;9.90;;;0.10;92.60;;;;;;5034690;28;20502;-63
2022/03/13 03:52:23;;;;;;;19.47;8.23;;;0.10;92.60;;;;;;5041391;28;20174;-63
2022/03/13 03:54:48;;;;;;;29.93;10.40;;;0.10;92.60;;;;;;5033457;28;20772;-66
2022/03/13 03:57:14;;;;;;;25.67;10.50;;;0.10;92.50;;;;;;5042060;28;20192;-65
2022/03/13 03:59:40;;;;;;;15.60;7.77;;;0.10;92.70;;;;;;5036395;28;20280;-65
2022/03/13 04:02:05;;;;;;;22.90;10.03;;;0.10;92.70;;;;;;5037158;28;20251;-65
2022/03/13 04:04:31;;;;;;;23.37;9.30;;;0.00;92.80;;;;;;5039801;28;20182;-65
2022/03/13 04:06:56;;;;;;;22.60;9.23;;;0.00;93.00;;;;;;5039970;28;20181;-66
2022/03/13 04:09:22;;;;;;;21.70;9.27;;;0.10;93.10;;;;;;5038068;28;20802;-64
2022/03/13 04:11:48;;;;;;;21.07;8.80;;;0.00;93.20;;;;;;5039480;28;20189;-65
2022/03/13 04:14:14;;;;;;;19.73;9.13;;;0.10;93.30;;;;;;5037572;28;20189;-63
2022/03/13 04:16:41;;;;;;;20.80;10.83;;;0.10;93.30;;;;;;5047965;28;20198;-66
2022/03/13 04:19:08;;;;;;;29.27;10.77;;;0.10;93.20;;;;;;5042198;28;20917;-68
2022/03/13 04:21:34;;;;;;;17.83;8.27;;;0.10;93.20;;;;;;5022016;28;20838;-66
2022/03/13 04:24:00;;;;;;;16.00;8.10;;;0.10;93.40;;;;;;5040628;28;20417;-63
2022/03/13 04:26:26;;;;;;;20.53;9.27;;;0.00;93.40;;;;;;5042214;28;20443;-65
2022/03/13 04:28:52;;;;;;;19.40;9.10;;;0.00;93.70;;;;;;5032975;28;20293;-68
2022/03/13 04:31:18;;;;;;;15.70;8.70;;;0.00;93.60;;;;;;5043513;28;20277;-65
2022/03/13 04:33:44;;;;;;;29.07;9.63;;;0.00;93.80;;;;;;5040402;28;20575;-66
2022/03/13 04:36:13;;;;;;;20.93;8.70;;;-0.10;93.70;;;;;;5042414;28;20192;-67
2022/03/13 04:38:40;;;;;;;36.10;10.20;;;-0.10;93.70;;;;;;5037272;28;20507;-66
2022/03/13 04:41:06;;;;;;;18.20;8.07;;;-0.10;93.90;;;;;;5030083;28;20434;-66
2022/03/13 04:43:31;;;;;;;23.50;10.10;;;-0.20;93.60;;;;;;5042049;28;21137;-63
2022/03/13 04:45:57;;;;;;;22.37;8.83;;;-0.20;93.70;;;;;;5016783;28;20209;-65
2022/03/13 04:48:23;;;;;;;25.20;9.57;;;-0.30;94.00;;;;;;5046026;28;20233;-65
2022/03/13 04:50:49;;;;;;;16.17;8.03;;;-0.30;93.80;;;;;;5037755;28;20516;-65
2022/03/13 04:53:15;;;;;;;23.23;9.83;;;-0.30;93.80;;;;;;5047036;28;20729;-65
2022/03/13 04:55:41;;;;;;;20.80;10.07;;;-0.30;93.90;;;;;;5044055;28;20192;-65
2022/03/13 04:58:08;;;;;;;25.93;9.60;;;-0.30;93.90;;;;;;5040194;28;20476;-66
2022/03/13 05:00:36;;;;;;;27.43;10.23;;;-0.30;94.00;;;;;;5040923;28;20252;-66
2022/03/13 05:03:02;;;;;;;24.77;9.10;;;-0.40;93.90;;;;;;5044610;28;20439;-65
2022/03/13 05:05:28;;;;;;;20.37;8.70;;;-0.40;93.90;;;;;;5040478;28;20520;-66
2022/03/13 05:07:54;;;;;;;31.07;9.70;;;-0.40;93.90;;;;;;5038378;28;20598;-66
2022/03/13 05:10:20;;;;;;;29.80;10.23;;;-0.40;93.50;;;;;;5036216;28;20190;-65
2022/03/13 05:12:47;;;;;;;24.07;9.97;;;-0.40;93.70;;;;;;5038743;28;20420;-66
2022/03/13 05:15:13;;;;;;;26.17;9.53;;;-0.40;93.70;;;;;;5041193;28;20182;-65
2022/03/13 05:17:39;;;;;;;23.57;8.93;;;-0.30;93.90;;;;;;5037359;28;20448;-65
2022/03/13 05:20:05;;;;;;;26.40;9.03;;;-0.40;93.60;;;;;;5039616;28;20436;-64
2022/03/13 05:22:31;;;;;;;18.97;8.83;;;-0.50;93.50;;;;;;5039741;28;20183;-66
2022/03/13 05:24:57;;;;;;;21.80;10.80;;;-0.60;93.60;;;;;;5033642;28;20935;-65
2022/03/13 05:27:23;;;;;;;27.67;10.43;;;-0.50;94.00;;;;;;5033877;28;20229;-64
2022/03/13 05:29:49;;;;;;;23.27;10.67;;;-0.50;94.10;;;;;;5038579;28;20963;-66
2022/03/13 05:32:14;;;;;;;24.13;10.00;;;-0.40;94.40;;;;;;5040208;28;20776;-65
2022/03/13 05:34:40;;;;;;;22.03;9.40;;;-0.40;94.20;;;;;;5043211;28;20416;-65
2022/03/13 05:37:08;;;;;;;35.50;10.17;;;-0.50;94.20;;;;;;5038511;28;20178;-65
2022/03/13 05:39:34;;;;;;;21.40;8.83;;;-0.50;94.10;;;;;;5036208;28;20589;-67
2022/03/13 05:42:00;;;;;;;18.83;8.37;;;-0.50;93.80;;;;;;5024106;28;20463;-67
2022/03/13 05:44:26;;;;;;;24.57;9.67;;;-0.70;93.90;;;;;;5043147;28;20451;-68
2022/03/13 05:46:51;;;;;;;22.40;9.73;;;-0.70;94.30;;;;;;5028367;28;20895;-65
2022/03/13 05:49:17;;;;;;;21.30;9.37;;;-0.60;94.50;;;;;;5030184;28;20243;-65
2022/03/13 05:51:43;;;;;;;21.53;10.90;;;-0.60;94.40;;;;;;5033644;28;20192;-66
2022/03/13 05:54:09;;;;;;;27.63;10.67;;;-0.60;94.40;;;;;;5037584;28;20187;-65
2022/03/13 05:56:36;;;;;;;21.07;9.00;;;-0.60;94.10;;;;;;5038326;28;20209;-66
2022/03/13 05:59:01;;;;;;;20.50;9.17;;;-0.70;93.90;;;;;;5036363;28;20481;-65
2022/03/13 06:01:27;;;;;;;17.83;9.67;;;-0.70;94.00;;;;;;5036895;28;20436;-65
2022/03/13 06:03:53;;;;;;;20.63;10.27;;;-0.80;94.10;;;;;;5020039;28;20189;-67
2022/03/13 06:06:20;;;;;;;19.23;8.73;;;-0.70;94.20;;;;;;5035755;28;20210;-65
2022/03/13 06:08:46;;;;;;;26.60;10.30;;;-0.80;94.30;;;;;;5032697;28;20451;-66
2022/03/13 06:11:12;;;;;;;21.63;10.40;;;-0.80;94.60;;;;;;5036623;28;20417;-67
2022/03/13 06:13:38;;;;;;;27.93;9.60;;;-0.60;94.80;;;;;;5040844;28;21016;-65
2022/03/13 06:16:04;;;;;;;21.07;9.27;;;-0.60;94.40;;;;;;5039595;28;20503;-66
2022/03/13 06:18:32;;;;;;;25.33;10.30;;;-0.40;94.70;;;;;;5039810;28;20217;-66
2022/03/13 06:20:58;;;;;;;22.47;9.13;;;-0.40;94.50;;;;;;5036115;28;20421;-65
2022/03/13 06:23:24;;;;;;;21.47;9.40;;;-0.30;94.40;;;;;;5035744;28;20428;-64
2022/03/13 06:25:50;;;;;;;26.63;11.00;;;-0.40;94.00;;;;;;5031796;28;21129;-66
2022/03/13 06:28:16;;;;;;;25.47;11.00;;;-0.30;94.10;;;;;;5032081;28;20539;-65
2022/03/13 06:30:43;;;;;;;25.83;10.43;;;-0.30;94.40;;;;;;5040188;28;20496;-64
2022/03/13 06:33:08;;;;;;;25.90;8.80;;;-0.30;94.40;;;;;;5027633;28;20428;-64
2022/03/13 06:35:34;;;;;;;29.13;11.33;;;-0.20;94.60;;;;;;5038864;28;20433;-65
2022/03/13 06:37:59;;;;;;;21.67;8.93;;;-0.10;94.40;;;;;;5040052;28;20245;-66
2022/03/13 06:40:26;;;;;;;24.30;10.30;;;0.10;94.40;;;;;;5039156;28;20185;-65
2022/03/13 06:42:55;;;;;;;25.33;10.43;;;0.20;94.30;;;;;;5011081;28;20232;-66
2022/03/13 06:45:22;;;;;;;24.43;9.97;;;0.30;94.30;;;;;;5037802;28;20472;-65
2022/03/13 06:47:52;;;;;;;23.83;11.83;;;0.40;94.00;;;;;;5039046;28;20990;-66
2022/03/13 06:50:21;;;;;;;15.17;8.60;;;0.40;93.80;;;;;;5028857;28;20429;-69
2022/03/13 06:52:48;;;;;;;24.20;10.23;;;0.50;93.90;;;;;;5035459;28;21331;-65
2022/03/13 06:55:15;;;;;;;25.37;11.50;;;0.60;94.00;;;;;;5036207;28;20452;-65
2022/03/13 06:57:42;;;;;;;31.90;10.97;;;0.70;94.00;;;;;;5036177;28;21153;-65
2022/03/13 07:00:09;;;;;;;22.43;10.13;;;0.90;94.00;;;;;;5034045;28;20515;-65
2022/03/13 07:02:35;;;;;;;19.60;9.73;;;1.00;93.80;;;;;;5032460;28;20782;-65
2022/03/13 07:05:01;;;;;;;26.27;11.00;;;1.20;93.70;;;;;;5031699;28;20498;-67
2022/03/13 07:07:27;;;;;;;21.90;9.90;;;1.40;93.50;;;;;;5027333;28;20973;-64
2022/03/13 07:09:53;;;;;;;23.93;10.30;;;1.60;93.30;;;;;;5026470;28;20202;-65
2022/03/13 07:12:19;;;;;;;24.20;11.47;;;1.90;93.10;;;;;;5035314;28;20657;-69
2022/03/13 07:14:48;;;;;;;26.57;12.33;;;2.20;93.10;;;;;;5029026;28;20274;-66
2022/03/13 07:17:15;;;;;;;23.97;10.57;;;2.40;92.10;;;;;;5040291;28;20427;-66
2022/03/13 07:19:43;;;;;;;19.67;9.20;;;2.70;91.70;;;;;;5014712;28;20980;-66
2022/03/13 07:22:13;;;;;;;20.70;9.30;;;3.00;91.00;;;;;;5041862;28;20424;-68
2022/03/13 07:24:40;;;;;;;22.77;9.73;;;3.30;90.10;;;;;;5032677;28;20435;-66
2022/03/13 07:27:05;;;;;;;21.67;10.27;;;3.60;89.50;;;;;;5038824;28;20429;-66
2022/03/13 07:29:31;;;;;;;29.47;11.43;;;3.90;88.80;;;;;;5033959;28;20521;-66
2022/03/13 07:31:57;;;;;;;26.63;10.47;;;4.10;88.80;;;;;;5037713;28;20269;-66
2022/03/13 07:34:24;;;;;;;20.90;9.10;;;4.50;87.40;;;;;;5033644;28;20240;-66
2022/03/13 07:36:51;;;;;;;20.57;8.93;;;4.90;86.60;;;;;;5031250;28;20833;-67
2022/03/13 07:39:18;;;;;;;20.63;8.83;;;5.40;86.60;;;;;;5033110;28;20481;-65
2022/03/13 07:41:45;;;;;;;20.33;9.67;;;6.20;85.00;;;;;;5031206;28;20522;-64
2022/03/13 07:44:11;;;;;;;21.83;9.37;;;7.20;80.80;;;;;;5034369;28;20429;-66
2022/03/13 07:46:36;;;;;;;25.43;9.80;;;8.10;78.10;;;;;;5027818;28;20451;-66
2022/03/13 07:49:03;;;;;;;25.93;10.53;;;9.00;75.20;;;;;;5033373;28;20449;-67
2022/03/13 07:51:28;;;;;;;25.00;9.87;;;9.70;71.50;;;;;;5044184;28;20216;-67
2022/03/13 07:53:54;;;;;;;23.30;9.27;;;10.40;67.50;;;;;;5040921;28;20535;-67
2022/03/13 07:56:20;;;;;;;25.00;11.20;;;10.70;66.20;;;;;;5043548;28;20182;-66
2022/03/13 07:58:45;;;;;;;23.90;8.53;;;11.20;65.10;;;;;;5037820;28;20360;-66
2022/03/13 08:01:11;;;;;;;21.13;9.83;;;11.40;63.90;;;;;;5042560;28;20324;-66
2022/03/13 08:03:38;;;;;;;18.53;9.27;;;12.30;62.00;;;;;;5037353;28;20210;-67
2022/03/13 08:06:04;;;;;;;21.77;10.40;;;12.00;63.20;;;;;;5036740;28;20182;-67
2022/03/13 08:08:31;;;;;;;24.00;10.10;;;12.30;62.40;;;;;;5038557;28;20455;-66
2022/03/13 08:10:57;;;;;;;13.57;8.73;;;12.60;63.30;;;;;;5043108;28;20431;-67
2022/03/13 08:13:23;;;;;;;28.83;9.93;;;12.70;62.00;;;;;;5033481;28;20429;-67
2022/03/13 08:15:48;;;;;;;21.60;9.30;;;12.70;61.60;;;;;;5041734;28;20954;-67
2022/03/13 08:18:14;;;;;;;17.87;9.93;;;12.40;62.10;;;;;;5038724;28;20225;-66
2022/03/13 08:20:40;;;;;;;28.03;10.30;;;12.00;62.00;;;;;;5040025;28;20202;-65
2022/03/13 08:23:06;;;;;;;18.30;7.93;;;11.70;62.90;;;;;;5034867;28;20210;-66
2022/03/13 08:25:31;;;;;;;16.17;9.00;;;11.40;63.40;;;;;;5042080;28;20181;-66
2022/03/13 08:27:57;;;;;;;16.37;7.80;;;11.30;64.90;;;;;;5044590;28;20208;-67
2022/03/13 08:30:23;;;;;;;16.90;7.80;;;11.20;64.70;;;;;;5045502;28;20205;-65
2022/03/13 08:32:48;;;;;;;24.10;10.73;;;11.40;65.30;;;;;;5019474;28;20519;-66
2022/03/13 08:35:15;;;;;;;21.10;9.97;;;11.40;65.30;;;;;;5033592;28;20674;-66
2022/03/13 08:37:40;;;;;;;16.23;8.80;;;12.20;63.70;;;;;;5036929;28;20605;-66
2022/03/13 08:40:09;;;;;;;21.97;8.67;;;12.50;62.70;;;;;;5014814;28;20432;-66
2022/03/13 08:42:34;;;;;;;20.10;8.80;;;12.80;61.60;;;;;;5036590;28;20182;-65
2022/03/13 08:45:00;;;;;;;15.43;8.70;;;12.80;61.10;;;;;;5036330;28;20420;-67
2022/03/13 08:47:27;;;;;;;23.37;9.73;;;12.90;61.40;;;;;;5030355;28;20210;-66
2022/03/13 08:49:53;;;;;;;24.20;9.17;;;13.30;60.60;;;;;;5037013;28;20216;-66
2022/03/13 08:52:19;;;;;;;21.57;8.90;;;13.50;60.00;;;;;;5030318;28;20484;-64
2022/03/13 08:54:45;;;;;;;19.43;9.27;;;13.30;60.10;;;;;;5038181;28;20439;-64
2022/03/13 08:57:11;;;;;;;19.17;8.93;;;13.30;60.40;;;;;;5030740;28;20421;-66
2022/03/13 08:59:37;;;;;;;21.07;9.43;;;13.40;60.50;;;;;;5036546;28;20480;-66
2022/03/13 09:02:04;;;;;;;22.60;8.87;;;13.60;59.60;;;;;;5030720;28;20657;-66
2022/03/13 09:04:31;;;;;;;16.20;8.00;;;13.60;59.40;;;;;;5037135;28;20448;-65
2022/03/13 09:06:57;;;;;;;22.27;9.40;;;13.60;59.10;;;;;;5029747;28;21198;-66
2022/03/13 09:09:23;;;;;;;17.57;9.10;;;13.30;59.30;;;;;;5040981;28;20444;-65
2022/03/13 09:11:51;;;;;;;24.33;9.63;;;13.20;59.70;;;;;;5036104;28;20433;-66
2022/03/13 09:14:18;;;;;;;20.90;9.23;;;13.00;60.90;;;;;;5037821;28;20479;-66
2022/03/13 09:16:45;;;;;;;18.60;8.57;;;13.00;60.20;;;;;;5036866;28;20471;-66
2022/03/13 09:19:11;;;;;;;15.97;7.53;;;13.20;59.80;;;;;;5032990;28;20473;-66
2022/03/13 09:21:40;;;;;;;17.97;8.77;;;13.50;59.20;;;;;;5035305;28;20507;-66
2022/03/13 09:24:07;;;;;;;14.97;8.70;;;13.60;59.40;;;;;;5031885;28;20425;-68
2022/03/13 09:26:34;;;;;;;18.53;8.87;;;13.50;60.00;;;;;;5036199;28;20420;-66
2022/03/13 09:29:01;;;;;;;21.27;9.33;;;13.40;59.70;;;;;;5030700;28;20448;-66
2022/03/13 09:31:27;;;;;;;22.97;8.63;;;13.60;59.10;;;;;;5034541;28;20527;-66
2022/03/13 09:33:53;;;;;;;25.27;8.57;;;13.60;59.20;;;;;;5031370;28;20519;-66
2022/03/13 09:36:19;;;;;;;26.30;10.00;;;13.60;59.50;;;;;;5034082;28;20185;-66
2022/03/13 09:38:45;;;;;;;18.23;7.80;;;13.40;59.60;;;;;;5031082;28;20229;-66
2022/03/13 09:41:12;;;;;;;16.80;7.37;;;13.90;58.40;;;;;;5034824;28;21159;-65
2022/03/13 09:43:38;;;;;;;12.00;6.87;;;14.00;57.90;;;;;;5026336;28;20422;-66
2022/03/13 09:46:05;;;;;;;18.17;8.30;;;13.60;58.90;;;;;;5033354;28;20421;-66
2022/03/13 09:48:36;;;;;;;20.03;9.03;;;13.00;59.60;;;;;;5009791;28;20477;-66
2022/03/13 09:51:06;;;;;;;18.93;8.40;;;13.20;59.40;;;;;;5030350;28;20440;-66
2022/03/13 09:53:36;;;;;;;13.47;7.20;;;13.00;59.70;;;;;;5030661;28;20442;-68
2022/03/13 09:56:04;;;;;;;19.23;8.37;;;12.80;61.10;;;;;;5038527;28;20432;-68
2022/03/13 09:58:31;;;;;;;20.97;8.53;;;12.70;60.60;;;;;;5032097;28;20467;-69
2022/03/13 10:00:57;;;;;;;21.30;7.90;;;12.70;61.00;;;;;;5039195;28;20440;-68
2022/03/13 10:03:23;;;;;;;16.53;7.73;;;12.60;60.90;;;;;;5039390;28;20413;-68
2022/03/13 10:05:50;;;;;;;15.63;8.03;;;12.30;60.40;;;;;;5039091;28;20923;-67
2022/03/13 10:08:17;;;;;;;16.20;7.50;;;12.30;61.00;;;;;;5036493;28;20261;-68
2022/03/13 10:10:44;;;;;;;25.73;9.03;;;12.20;62.40;;;;;;5017929;28;20432;-68
2022/03/13 10:13:11;;;;;;;19.77;8.37;;;12.30;60.20;;;;;;5034268;28;20429;-69
2022/03/13 10:15:43;;;;;;;16.53;8.27;;;12.40;59.90;;;;;;5035776;28;20520;-68
2022/03/13 10:18:20;;;;;;;22.27;9.30;;;12.50;59.70;;;;;;5033892;28;20469;-67
2022/03/13 10:20:47;;;;;;;24.70;9.50;;;12.70;59.20;;;;;;5026339;28;20445;-68
2022/03/13 10:23:19;;;;;;;23.57;10.17;;;12.60;59.00;;;;;;5034499;28;20412;-69
2022/03/13 10:25:46;;;;;;;25.07;11.03;;;12.80;58.50;;;;;;5032205;28;20524;-69
2022/03/13 10:28:25;;;;;;;24.27;8.80;;;13.00;58.40;;;;;;5035396;28;20614;-68
2022/03/13 10:31:00;;;;;;;25.97;9.53;;;13.10;59.10;;;;;;5030030;28;20429;-68
2022/03/13 10:33:42;;;;;;;25.07;9.13;;;13.00;59.80;;;;;;5028761;28;20428;-68
2022/03/13 10:36:09;;;;;;;25.10;10.00;;;13.10;59.40;;;;;;5031142;28;20813;-65
2022/03/13 10:38:35;;;;;;;27.10;11.27;;;13.00;59.70;;;;;;5032302;28;20469;-65
2022/03/13 10:41:08;;;;;;;18.63;9.30;;;13.00;59.40;;;;;;5033407;28;20421;-66
2022/03/13 10:43:34;;;;;;;25.03;8.70;;;13.00;59.70;;;;;;5028081;28;20455;-67
2022/03/13 10:46:01;;;;;;;29.07;10.57;;;13.10;59.80;;;;;;5029334;28;20427;-64
2022/03/13 10:48:39;;;;;;;25.73;9.53;;;13.20;60.30;;;;;;5029976;28;20441;-66
2022/03/13 10:51:12;;;;;;;20.73;8.73;;;13.50;59.50;;;;;;5037976;28;20483;-66
2022/03/13 10:53:41;;;;;;;23.60;10.27;;;13.60;58.60;;;;;;5031882;28;20432;-67
2022/03/13 10:56:14;;;;;;;28.13;9.57;;;13.50;59.20;;;;;;5039084;28;20506;-67
2022/03/13 10:58:45;;;;;;;24.67;10.60;;;13.50;60.90;;;;;;5031378;28;20475;-66
2022/03/13 11:01:13;;;;;;;24.17;11.30;;;13.70;59.60;;;;;;5032373;28;20436;-66
2022/03/13 11:03:51;;;;;;;21.10;9.00;;;13.90;58.50;;;;;;5032784;28;20431;-66
2022/03/13 11:06:18;;;;;;;36.57;9.73;;;14.00;58.40;;;;;;5031692;28;20428;-66
2022/03/13 11:08:44;;;;;;;19.73;9.60;;;14.00;58.20;;;;;;5032699;28;20444;-67
2022/03/13 11:11:10;;;;;;;24.20;9.90;;;14.10;57.70;;;;;;5033090;28;20425;-65
2022/03/13 11:13:39;;;;;;;23.67;9.80;;;14.10;57.50;;;;;;5033522;28;20955;-65
2022/03/13 11:16:06;;;;;;;25.93;10.43;;;14.10;58.10;;;;;;5027965;28;20937;-66
2022/03/13 11:18:35;;;;;;;18.80;7.87;;;13.90;57.90;;;;;;5031718;28;20502;-67
2022/03/13 11:21:06;;;;;;;18.80;8.87;;;14.00;58.00;;;;;;5028039;28;20421;-66
2022/03/13 11:23:33;;;;;;;23.57;9.60;;;14.00;57.50;;;;;;5030154;28;20412;-67
2022/03/13 11:26:00;;;;;;;21.13;10.00;;;14.10;57.20;;;;;;5027886;28;20974;-65
2022/03/13 11:28:28;;;;;;;19.60;8.80;;;14.20;56.80;;;;;;5033539;28;20499;-66
2022/03/13 11:30:54;;;;;;;23.33;9.80;;;14.40;57.00;;;;;;5011623;28;20429;-66
2022/03/13 11:33:45;;;;;;;25.77;10.03;;;14.50;56.60;;;;;;5035351;28;20766;-66
2022/03/13 11:36:28;;;;;;;26.00;9.83;;;14.60;55.60;;;;;;5023424;28;20416;-67
2022/03/13 11:39:02;;;;;;;21.93;9.67;;;14.60;56.40;;;;;;5031269;28;21208;-67
2022/03/13 11:41:41;;;;;;;21.03;10.03;;;14.70;55.80;;;;;;5031874;28;20423;-66
2022/03/13 11:44:21;;;;;;;23.63;9.70;;;14.70;55.60;;;;;;5033862;28;20412;-66
2022/03/13 11:46:52;;;;;;;27.63;10.20;;;15.00;55.70;;;;;;5029789;28;20504;-67
2022/03/13 11:49:39;;;;;;;20.10;9.87;;;15.10;54.50;;;;;;5015216;28;20555;-66
2022/03/13 11:52:15;;;;;;;22.90;9.73;;;15.00;54.10;;;;;;5016845;28;20438;-67
2022/03/13 11:54:53;;;;;;;19.97;8.43;;;15.20;54.30;;;;;;5034703;28;20423;-67
2022/03/13 11:57:24;;;;;;;21.10;9.43;;;15.20;54.40;;;;;;5033229;28;20409;-67
2022/03/13 12:00:11;;;;;;;26.50;9.23;;;15.30;54.50;;;;;;5031896;28;20535;-66
2022/03/13 12:02:46;;;;;;;23.77;11.10;;;15.30;54.60;;;;;;5007608;28;20533;-67
2022/03/13 12:05:30;;;;;;;24.33;9.43;;;15.70;53.40;;;;;;5032327;28;20520;-66
2022/03/13 12:08:06;;;;;;;25.77;9.50;;;15.70;53.00;;;;;;5032108;28;20969;-67
2022/03/13 12:10:41;;;;;;;22.70;10.30;;;15.60;53.20;;;;;;5038477;28;21246;-67
2022/03/13 12:13:18;;;;;;;23.17;10.87;;;15.60;54.30;;;;;;5030975;28;20423;-67
2022/03/13 12:15:45;;;;;;;27.40;10.83;;;15.70;53.30;;;;;;5016502;28;20448;-66
2022/03/13 12:18:23;;;;;;;19.30;9.80;;;15.90;52.50;;;;;;5032140;28;20517;-66
2022/03/13 12:20:50;;;;;;;25.13;10.43;;;15.70;52.70;;;;;;5032743;28;20410;-65
2022/03/13 12:23:31;;;;;;;25.23;9.83;;;15.40;54.00;;;;;;5033357;28;20414;-66
2022/03/13 12:26:20;;;;;;;23.03;10.37;;;15.60;52.70;;;;;;5031635;28;20499;-66
2022/03/13 12:28:48;;;;;;;18.47;8.77;;;15.70;52.00;;;;;;5031821;28;20518;-66
2022/03/13 12:31:13;;;;;;;29.73;9.87;;;15.60;52.60;;;;;;5028703;28;20987;-66
2022/03/13 12:33:47;;;;;;;23.83;10.10;;;15.70;53.10;;;;;;5037653;28;20443;-66
2022/03/13 12:36:13;;;;;;;22.33;10.13;;;16.00;52.00;;;;;;5026415;28;20437;-66
2022/03/13 12:38:43;;;;;;;21.10;9.90;;;16.00;51.40;;;;;;5042059;28;20691;-65
2022/03/13 12:41:10;;;;;;;25.67;10.30;;;15.70;51.90;;;;;;5032915;28;20917;-66